sensor_id;sensor_type;location;lat;lon;timestamp;P1;durP1;ratioP1;P2;durP2;ratioP2
51332;SDS011;37417;48.118;11.734;2022-08-21T00:01:22;2.80;;;1.52;;
51332;SDS011;37417;48.118;11.734;2022-08-21T00:04:09;5.05;;;1.80;;
51332;SDS011;37417;48.118;11.734;2022-08-21T00:06:55;1.90;;;1.75;;
51332;SDS011;37417;48.118;11.734;2022-08-21T00:09:41;5.38;;;1.70;;
51332;SDS011;37417;48.118;11.734;2022-08-21T00:12:26;2.38;;;2.10;;
51332;SDS011;37417;48.118;11.734;2022-08-21T00:15:16;2.42;;;1.98;;
51332;SDS011;37417;48.118;11.734;2022-08-21T00:18:03;3.70;;;1.70;;
51332;SDS011;37417;48.118;11.734;2022-08-21T00:20:49;3.05;;;2.15;;
51332;SDS011;37417;48.118;11.734;2022-08-21T00:23:34;2.33;;;2.10;;
51332;SDS011;37417;48.118;11.734;2022-08-21T00:26:20;2.70;;;2.05;;
51332;SDS011;37417;48.118;11.734;2022-08-21T00:29:06;2.42;;;2.05;;
51332;SDS011;37417;48.118;11.734;2022-08-21T00:31:51;2.88;;;2.13;;
51332;SDS011;37417;48.118;11.734;2022-08-21T00:34:37;6.18;;;1.67;;
51332;SDS011;37417;48.118;11.734;2022-08-21T00:37:22;2.30;;;2.08;;
51332;SDS011;37417;48.118;11.734;2022-08-21T00:40:10;4.55;;;2.00;;
51332;SDS011;37417;48.118;11.734;2022-08-21T00:42:56;2.65;;;1.92;;
51332;SDS011;37417;48.118;11.734;2022-08-21T00:45:42;2.55;;;2.10;;
51332;SDS011;37417;48.118;11.734;2022-08-21T00:48:29;2.63;;;1.95;;
51332;SDS011;37417;48.118;11.734;2022-08-21T00:51:20;2.50;;;2.30;;
51332;SDS011;37417;48.118;11.734;2022-08-21T00:54:08;2.33;;;1.90;;
51332;SDS011;37417;48.118;11.734;2022-08-21T00:56:59;2.92;;;2.40;;
51332;SDS011;37417;48.118;11.734;2022-08-21T00:59:46;2.58;;;2.10;;
51332;SDS011;37417;48.118;11.734;2022-08-21T01:02:33;4.57;;;1.95;;
51332;SDS011;37417;48.118;11.734;2022-08-21T01:05:18;2.08;;;1.88;;
51332;SDS011;37417;48.118;11.734;2022-08-21T01:08:04;4.57;;;1.63;;
51332;SDS011;37417;48.118;11.734;2022-08-21T01:10:50;2.53;;;1.98;;
51332;SDS011;37417;48.118;11.734;2022-08-21T01:13:37;1.70;;;1.60;;
51332;SDS011;37417;48.118;11.734;2022-08-21T01:16:29;2.45;;;1.80;;
51332;SDS011;37417;48.118;11.734;2022-08-21T01:19:16;2.50;;;1.70;;
51332;SDS011;37417;48.118;11.734;2022-08-21T01:22:03;2.38;;;1.25;;
51332;SDS011;37417;48.118;11.734;2022-08-21T01:24:48;3.17;;;1.75;;
51332;SDS011;37417;48.118;11.734;2022-08-21T01:27:35;2.08;;;1.85;;
51332;SDS011;37417;48.118;11.734;2022-08-21T01:30:23;1.80;;;1.60;;
51332;SDS011;37417;48.118;11.734;2022-08-21T01:33:09;1.67;;;1.15;;
51332;SDS011;37417;48.118;11.734;2022-08-21T01:35:55;3.00;;;1.13;;
51332;SDS011;37417;48.118;11.734;2022-08-21T01:38:40;1.20;;;1.10;;
51332;SDS011;37417;48.118;11.734;2022-08-21T01:41:26;1.27;;;1.17;;
51332;SDS011;37417;48.118;11.734;2022-08-21T01:44:12;1.63;;;1.50;;
51332;SDS011;37417;48.118;11.734;2022-08-21T01:46:58;3.67;;;1.25;;
51332;SDS011;37417;48.118;11.734;2022-08-21T01:49:44;3.92;;;1.45;;
51332;SDS011;37417;48.118;11.734;2022-08-21T01:52:30;1.42;;;1.30;;
51332;SDS011;37417;48.118;11.734;2022-08-21T01:55:16;3.28;;;1.30;;
51332;SDS011;37417;48.118;11.734;2022-08-21T01:58:03;1.73;;;1.20;;
51332;SDS011;37417;48.118;11.734;2022-08-21T02:00:48;1.20;;;1.10;;
51332;SDS011;37417;48.118;11.734;2022-08-21T02:03:34;1.13;;;1.02;;
51332;SDS011;37417;48.118;11.734;2022-08-21T02:06:20;1.48;;;1.27;;
51332;SDS011;37417;48.118;11.734;2022-08-21T02:09:06;1.23;;;1.13;;
51332;SDS011;37417;48.118;11.734;2022-08-21T02:11:52;3.97;;;1.13;;
51332;SDS011;37417;48.118;11.734;2022-08-21T02:14:37;1.45;;;1.15;;
51332;SDS011;37417;48.118;11.734;2022-08-21T02:17:23;1.48;;;1.20;;
51332;SDS011;37417;48.118;11.734;2022-08-21T02:20:09;3.50;;;1.17;;
51332;SDS011;37417;48.118;11.734;2022-08-21T02:22:55;2.45;;;1.05;;
51332;SDS011;37417;48.118;11.734;2022-08-21T02:25:40;1.52;;;1.33;;
51332;SDS011;37417;48.118;11.734;2022-08-21T02:28:26;1.45;;;1.13;;
51332;SDS011;37417;48.118;11.734;2022-08-21T02:31:11;3.78;;;1.13;;
51332;SDS011;37417;48.118;11.734;2022-08-21T02:33:57;1.40;;;1.20;;
51332;SDS011;37417;48.118;11.734;2022-08-21T02:36:42;2.25;;;1.00;;
51332;SDS011;37417;48.118;11.734;2022-08-21T02:39:28;1.27;;;1.15;;
51332;SDS011;37417;48.118;11.734;2022-08-21T02:42:14;2.70;;;1.10;;
51332;SDS011;37417;48.118;11.734;2022-08-21T02:44:59;1.15;;;1.10;;
51332;SDS011;37417;48.118;11.734;2022-08-21T02:47:52;2.38;;;1.00;;
51332;SDS011;37417;48.118;11.734;2022-08-21T02:50:39;1.20;;;1.10;;
51332;SDS011;37417;48.118;11.734;2022-08-21T02:53:25;1.40;;;1.20;;
51332;SDS011;37417;48.118;11.734;2022-08-21T02:56:12;1.40;;;1.30;;
51332;SDS011;37417;48.118;11.734;2022-08-21T02:58:57;1.40;;;1.10;;
51332;SDS011;37417;48.118;11.734;2022-08-21T03:01:43;3.70;;;1.20;;
51332;SDS011;37417;48.118;11.734;2022-08-21T03:04:29;1.35;;;1.20;;
51332;SDS011;37417;48.118;11.734;2022-08-21T03:07:15;1.38;;;1.25;;
51332;SDS011;37417;48.118;11.734;2022-08-21T03:10:00;2.63;;;1.27;;
51332;SDS011;37417;48.118;11.734;2022-08-21T03:12:46;4.07;;;1.42;;
51332;SDS011;37417;48.118;11.734;2022-08-21T03:15:32;1.17;;;1.08;;
51332;SDS011;37417;48.118;11.734;2022-08-21T03:18:17;1.95;;;1.27;;
51332;SDS011;37417;48.118;11.734;2022-08-21T03:21:03;0.95;;;0.90;;
51332;SDS011;37417;48.118;11.734;2022-08-21T03:23:49;3.22;;;1.23;;
51332;SDS011;37417;48.118;11.734;2022-08-21T03:26:34;1.52;;;1.42;;
51332;SDS011;37417;48.118;11.734;2022-08-21T03:29:20;1.30;;;1.20;;
51332;SDS011;37417;48.118;11.734;2022-08-21T03:32:06;1.48;;;0.98;;
51332;SDS011;37417;48.118;11.734;2022-08-21T03:34:54;3.80;;;1.25;;
51332;SDS011;37417;48.118;11.734;2022-08-21T03:37:40;1.38;;;0.98;;
51332;SDS011;37417;48.118;11.734;2022-08-21T03:40:25;2.05;;;1.40;;
51332;SDS011;37417;48.118;11.734;2022-08-21T03:43:11;1.42;;;1.33;;
51332;SDS011;37417;48.118;11.734;2022-08-21T03:45:57;1.73;;;1.45;;
51332;SDS011;37417;48.118;11.734;2022-08-21T03:48:42;1.55;;;1.45;;
51332;SDS011;37417;48.118;11.734;2022-08-21T03:51:28;1.42;;;1.27;;
51332;SDS011;37417;48.118;11.734;2022-08-21T03:54:13;4.03;;;1.33;;
51332;SDS011;37417;48.118;11.734;2022-08-21T03:56:59;2.67;;;1.33;;
51332;SDS011;37417;48.118;11.734;2022-08-21T03:59:44;1.75;;;1.10;;
51332;SDS011;37417;48.118;11.734;2022-08-21T04:02:30;4.68;;;1.48;;
51332;SDS011;37417;48.118;11.734;2022-08-21T04:05:17;2.33;;;1.10;;
51332;SDS011;37417;48.118;11.734;2022-08-21T04:08:13;1.50;;;1.25;;
51332;SDS011;37417;48.118;11.734;2022-08-21T04:10:58;1.35;;;1.25;;
51332;SDS011;37417;48.118;11.734;2022-08-21T04:13:44;3.92;;;1.23;;
51332;SDS011;37417;48.118;11.734;2022-08-21T04:16:30;1.95;;;1.13;;
51332;SDS011;37417;48.118;11.734;2022-08-21T04:19:16;1.23;;;1.13;;
51332;SDS011;37417;48.118;11.734;2022-08-21T04:22:01;1.48;;;1.38;;
51332;SDS011;37417;48.118;11.734;2022-08-21T04:24:47;1.42;;;1.33;;
51332;SDS011;37417;48.118;11.734;2022-08-21T04:27:33;2.72;;;1.27;;
51332;SDS011;37417;48.118;11.734;2022-08-21T04:30:19;2.03;;;1.52;;
51332;SDS011;37417;48.118;11.734;2022-08-21T04:33:05;3.03;;;1.40;;
51332;SDS011;37417;48.118;11.734;2022-08-21T04:35:50;2.22;;;1.00;;
51332;SDS011;37417;48.118;11.734;2022-08-21T04:38:36;1.23;;;1.13;;
51332;SDS011;37417;48.118;11.734;2022-08-21T04:41:21;1.48;;;1.23;;
51332;SDS011;37417;48.118;11.734;2022-08-21T04:44:07;1.38;;;1.25;;
51332;SDS011;37417;48.118;11.734;2022-08-21T04:46:53;1.23;;;1.10;;
51332;SDS011;37417;48.118;11.734;2022-08-21T04:49:39;1.20;;;1.10;;
51332;SDS011;37417;48.118;11.734;2022-08-21T04:52:24;1.95;;;1.10;;
51332;SDS011;37417;48.118;11.734;2022-08-21T04:55:10;1.05;;;0.95;;
51332;SDS011;37417;48.118;11.734;2022-08-21T04:57:56;1.02;;;0.93;;
51332;SDS011;37417;48.118;11.734;2022-08-21T05:00:43;2.67;;;1.20;;
51332;SDS011;37417;48.118;11.734;2022-08-21T05:03:29;2.13;;;1.20;;
51332;SDS011;37417;48.118;11.734;2022-08-21T05:06:16;1.88;;;1.25;;
51332;SDS011;37417;48.118;11.734;2022-08-21T05:09:02;1.20;;;1.10;;
51332;SDS011;37417;48.118;11.734;2022-08-21T05:11:48;1.30;;;1.20;;
51332;SDS011;37417;48.118;11.734;2022-08-21T05:14:34;1.15;;;1.05;;
51332;SDS011;37417;48.118;11.734;2022-08-21T05:17:20;1.48;;;1.30;;
51332;SDS011;37417;48.118;11.734;2022-08-21T05:20:06;2.72;;;1.05;;
51332;SDS011;37417;48.118;11.734;2022-08-21T05:22:52;3.28;;;1.10;;
51332;SDS011;37417;48.118;11.734;2022-08-21T05:25:38;1.30;;;1.20;;
51332;SDS011;37417;48.118;11.734;2022-08-21T05:28:24;1.00;;;1.00;;
51332;SDS011;37417;48.118;11.734;2022-08-21T05:31:10;2.75;;;1.02;;
51332;SDS011;37417;48.118;11.734;2022-08-21T05:33:56;2.25;;;1.00;;
51332;SDS011;37417;48.118;11.734;2022-08-21T05:36:42;0.85;;;0.70;;
51332;SDS011;37417;48.118;11.734;2022-08-21T05:39:27;1.67;;;0.75;;
51332;SDS011;37417;48.118;11.734;2022-08-21T05:42:13;0.63;;;0.40;;
51332;SDS011;37417;48.118;11.734;2022-08-21T05:44:58;1.33;;;0.50;;
51332;SDS011;37417;48.118;11.734;2022-08-21T05:47:44;0.50;;;0.45;;
51332;SDS011;37417;48.118;11.734;2022-08-21T05:50:29;0.52;;;0.30;;
51332;SDS011;37417;48.118;11.734;2022-08-21T05:53:16;1.45;;;0.40;;
51332;SDS011;37417;48.118;11.734;2022-08-21T05:56:02;0.93;;;0.70;;
51332;SDS011;37417;48.118;11.734;2022-08-21T05:58:49;0.50;;;0.45;;
51332;SDS011;37417;48.118;11.734;2022-08-21T06:01:34;0.70;;;0.60;;
51332;SDS011;37417;48.118;11.734;2022-08-21T06:04:20;0.90;;;0.63;;
51332;SDS011;37417;48.118;11.734;2022-08-21T06:07:06;2.35;;;0.90;;
51332;SDS011;37417;48.118;11.734;2022-08-21T06:09:52;2.72;;;0.57;;
51332;SDS011;37417;48.118;11.734;2022-08-21T06:12:37;1.50;;;0.82;;
51332;SDS011;37417;48.118;11.734;2022-08-21T06:15:23;0.68;;;0.40;;
51332;SDS011;37417;48.118;11.734;2022-08-21T06:18:09;0.68;;;0.68;;
51332;SDS011;37417;48.118;11.734;2022-08-21T06:20:54;1.90;;;0.70;;
51332;SDS011;37417;48.118;11.734;2022-08-21T06:23:40;1.10;;;0.70;;
51332;SDS011;37417;48.118;11.734;2022-08-21T06:26:26;1.95;;;0.60;;
51332;SDS011;37417;48.118;11.734;2022-08-21T06:29:13;1.50;;;0.40;;
51332;SDS011;37417;48.118;11.734;2022-08-21T06:32:02;1.88;;;0.73;;
51332;SDS011;37417;48.118;11.734;2022-08-21T06:34:48;1.08;;;0.60;;
51332;SDS011;37417;48.118;11.734;2022-08-21T06:37:33;0.60;;;0.60;;
51332;SDS011;37417;48.118;11.734;2022-08-21T06:40:19;1.08;;;0.93;;
51332;SDS011;37417;48.118;11.734;2022-08-21T06:43:05;1.13;;;0.75;;
51332;SDS011;37417;48.118;11.734;2022-08-21T06:45:51;3.13;;;0.60;;
51332;SDS011;37417;48.118;11.734;2022-08-21T06:48:37;1.10;;;0.85;;
51332;SDS011;37417;48.118;11.734;2022-08-21T06:51:23;2.60;;;0.70;;
51332;SDS011;37417;48.118;11.734;2022-08-21T06:54:10;0.55;;;0.55;;
51332;SDS011;37417;48.118;11.734;2022-08-21T06:56:56;0.60;;;0.60;;
51332;SDS011;37417;48.118;11.734;2022-08-21T06:59:41;2.40;;;1.00;;
51332;SDS011;37417;48.118;11.734;2022-08-21T07:02:27;0.60;;;0.50;;
51332;SDS011;37417;48.118;11.734;2022-08-21T07:05:12;2.70;;;0.70;;
51332;SDS011;37417;48.118;11.734;2022-08-21T07:07:58;2.05;;;0.80;;
51332;SDS011;37417;48.118;11.734;2022-08-21T07:10:44;1.80;;;0.80;;
51332;SDS011;37417;48.118;11.734;2022-08-21T07:13:31;8.73;;;1.25;;
51332;SDS011;37417;48.118;11.734;2022-08-21T07:16:16;3.13;;;1.00;;
51332;SDS011;37417;48.118;11.734;2022-08-21T07:19:02;3.35;;;1.08;;
51332;SDS011;37417;48.118;11.734;2022-08-21T07:21:50;1.30;;;0.88;;
51332;SDS011;37417;48.118;11.734;2022-08-21T07:24:37;3.15;;;0.88;;
51332;SDS011;37417;48.118;11.734;2022-08-21T07:27:23;1.20;;;1.05;;
51332;SDS011;37417;48.118;11.734;2022-08-21T07:30:08;0.98;;;0.77;;
51332;SDS011;37417;48.118;11.734;2022-08-21T07:32:54;1.90;;;1.10;;
51332;SDS011;37417;48.118;11.734;2022-08-21T07:35:40;3.53;;;1.23;;
51332;SDS011;37417;48.118;11.734;2022-08-21T07:38:25;4.47;;;1.60;;
51332;SDS011;37417;48.118;11.734;2022-08-21T07:43:59;4.45;;;1.20;;
51332;SDS011;37417;48.118;11.734;2022-08-21T07:46:45;4.57;;;1.65;;
51332;SDS011;37417;48.118;11.734;2022-08-21T07:49:30;1.95;;;1.38;;
51332;SDS011;37417;48.118;11.734;2022-08-21T07:52:16;2.03;;;1.80;;
51332;SDS011;37417;48.118;11.734;2022-08-21T07:55:02;1.70;;;1.60;;
51332;SDS011;37417;48.118;11.734;2022-08-21T07:57:47;1.38;;;1.15;;
51332;SDS011;37417;48.118;11.734;2022-08-21T08:00:33;3.67;;;1.67;;
51332;SDS011;37417;48.118;11.734;2022-08-21T08:03:19;2.20;;;1.58;;
51332;SDS011;37417;48.118;11.734;2022-08-21T08:06:05;1.80;;;1.50;;
51332;SDS011;37417;48.118;11.734;2022-08-21T08:08:53;2.80;;;1.95;;
51332;SDS011;37417;48.118;11.734;2022-08-21T08:11:40;1.77;;;1.67;;
51332;SDS011;37417;48.118;11.734;2022-08-21T08:14:28;2.58;;;1.58;;
51332;SDS011;37417;48.118;11.734;2022-08-21T08:17:13;4.18;;;1.80;;
51332;SDS011;37417;48.118;11.734;2022-08-21T08:19:59;2.08;;;1.30;;
51332;SDS011;37417;48.118;11.734;2022-08-21T08:22:46;1.95;;;1.35;;
51332;SDS011;37417;48.118;11.734;2022-08-21T08:25:31;1.60;;;1.48;;
51332;SDS011;37417;48.118;11.734;2022-08-21T08:28:17;2.60;;;1.67;;
51332;SDS011;37417;48.118;11.734;2022-08-21T08:31:03;1.98;;;1.55;;
51332;SDS011;37417;48.118;11.734;2022-08-21T08:33:48;3.58;;;2.05;;
51332;SDS011;37417;48.118;11.734;2022-08-21T08:36:35;2.20;;;1.75;;
51332;SDS011;37417;48.118;11.734;2022-08-21T08:39:21;1.48;;;1.38;;
51332;SDS011;37417;48.118;11.734;2022-08-21T08:42:14;2.55;;;1.25;;
51332;SDS011;37417;48.118;11.734;2022-08-21T08:45:05;1.63;;;1.40;;
51332;SDS011;37417;48.118;11.734;2022-08-21T08:50:46;2.25;;;1.60;;
51332;SDS011;37417;48.118;11.734;2022-08-21T08:53:33;5.55;;;1.70;;
51332;SDS011;37417;48.118;11.734;2022-08-21T08:56:26;3.17;;;1.73;;
51332;SDS011;37417;48.118;11.734;2022-08-21T08:59:17;4.00;;;1.60;;
51332;SDS011;37417;48.118;11.734;2022-08-21T09:02:04;3.38;;;1.55;;
51332;SDS011;37417;48.118;11.734;2022-08-21T09:04:50;3.05;;;2.20;;
51332;SDS011;37417;48.118;11.734;2022-08-21T09:07:42;5.10;;;1.90;;
51332;SDS011;37417;48.118;11.734;2022-08-21T09:13:33;4.68;;;2.00;;
51332;SDS011;37417;48.118;11.734;2022-08-21T09:16:30;5.35;;;1.92;;
51332;SDS011;37417;48.118;11.734;2022-08-21T09:25:28;1.88;;;1.48;;
51332;SDS011;37417;48.118;11.734;2022-08-21T09:28:16;3.00;;;1.80;;
51332;SDS011;37417;48.118;11.734;2022-08-21T09:31:05;3.05;;;1.55;;
51332;SDS011;37417;48.118;11.734;2022-08-21T09:33:56;3.47;;;1.60;;
51332;SDS011;37417;48.118;11.734;2022-08-21T09:39:29;1.80;;;1.50;;
51332;SDS011;37417;48.118;11.734;2022-08-21T09:42:22;4.45;;;1.77;;
51332;SDS011;37417;48.118;11.734;2022-08-21T09:45:12;2.35;;;1.30;;
51332;SDS011;37417;48.118;11.734;2022-08-21T09:51:16;4.00;;;1.13;;
51332;SDS011;37417;48.118;11.734;2022-08-21T09:56:52;2.40;;;1.50;;
51332;SDS011;37417;48.118;11.734;2022-08-21T10:00:06;2.10;;;1.33;;
51332;SDS011;37417;48.118;11.734;2022-08-21T10:02:53;4.07;;;1.70;;
51332;SDS011;37417;48.118;11.734;2022-08-21T10:05:39;2.75;;;1.25;;
51332;SDS011;37417;48.118;11.734;2022-08-21T10:08:26;1.98;;;1.27;;
51332;SDS011;37417;48.118;11.734;2022-08-21T10:11:13;1.52;;;1.00;;
51332;SDS011;37417;48.118;11.734;2022-08-21T10:14:12;1.52;;;1.10;;
51332;SDS011;37417;48.118;11.734;2022-08-21T10:17:17;2.67;;;1.50;;
51332;SDS011;37417;48.118;11.734;2022-08-21T10:20:11;1.77;;;1.33;;
51332;SDS011;37417;48.118;11.734;2022-08-21T10:26:05;2.08;;;1.38;;
51332;SDS011;37417;48.118;11.734;2022-08-21T10:34:51;1.92;;;1.20;;
51332;SDS011;37417;48.118;11.734;2022-08-21T10:37:44;1.42;;;1.27;;
51332;SDS011;37417;48.118;11.734;2022-08-21T10:40:34;1.02;;;1.00;;
51332;SDS011;37417;48.118;11.734;2022-08-21T10:46:25;0.90;;;0.80;;
51332;SDS011;37417;48.118;11.734;2022-08-21T10:52:09;2.05;;;1.20;;
51332;SDS011;37417;48.118;11.734;2022-08-21T10:57:58;1.88;;;1.20;;
51332;SDS011;37417;48.118;11.734;2022-08-21T11:00:51;1.10;;;1.00;;
51332;SDS011;37417;48.118;11.734;2022-08-21T11:03:39;2.10;;;1.48;;
51332;SDS011;37417;48.118;11.734;2022-08-21T11:06:27;2.28;;;1.15;;
51332;SDS011;37417;48.118;11.734;2022-08-21T11:09:18;1.30;;;1.20;;
51332;SDS011;37417;48.118;11.734;2022-08-21T11:12:47;16.33;;;1.40;;
51332;SDS011;37417;48.118;11.734;2022-08-21T11:15:24;2.20;;;0.65;;
51332;SDS011;37417;48.118;11.734;2022-08-21T11:21:02;8.35;;;1.63;;
51332;SDS011;37417;48.118;11.734;2022-08-21T11:27:33;1.55;;;1.08;;
51332;SDS011;37417;48.118;11.734;2022-08-21T11:30:00;1.43;;;1.00;;
51332;SDS011;37417;48.118;11.734;2022-08-21T11:35:45;2.05;;;1.02;;
51332;SDS011;37417;48.118;11.734;2022-08-21T11:38:39;1.55;;;1.02;;
51332;SDS011;37417;48.118;11.734;2022-08-21T11:41:29;2.30;;;1.30;;
51332;SDS011;37417;48.118;11.734;2022-08-21T11:47:28;1.17;;;0.80;;
51332;SDS011;37417;48.118;11.734;2022-08-21T11:50:17;2.17;;;1.10;;
51332;SDS011;37417;48.118;11.734;2022-08-21T11:53:08;1.33;;;1.23;;
51332;SDS011;37417;48.118;11.734;2022-08-21T11:56:02;1.02;;;0.93;;
51332;SDS011;37417;48.118;11.734;2022-08-21T11:58:51;1.50;;;1.20;;
51332;SDS011;37417;48.118;11.734;2022-08-21T12:01:40;1.40;;;1.00;;
51332;SDS011;37417;48.118;11.734;2022-08-21T12:04:28;2.45;;;1.38;;
51332;SDS011;37417;48.118;11.734;2022-08-21T12:07:16;2.40;;;1.45;;
51332;SDS011;37417;48.118;11.734;2022-08-21T12:10:04;1.85;;;1.23;;
51332;SDS011;37417;48.118;11.734;2022-08-21T12:12:50;2.88;;;1.23;;
51332;SDS011;37417;48.118;11.734;2022-08-21T12:15:35;1.25;;;0.88;;
51332;SDS011;37417;48.118;11.734;2022-08-21T12:18:28;3.88;;;1.08;;
51332;SDS011;37417;48.118;11.734;2022-08-21T12:26:53;3.28;;;1.30;;
51332;SDS011;37417;48.118;11.734;2022-08-21T12:29:45;4.10;;;1.00;;
51332;SDS011;37417;48.118;11.734;2022-08-21T12:33:17;4.40;;;0.88;;
51332;SDS011;37417;48.118;11.734;2022-08-21T12:35:37;1.17;;;1.10;;
51332;SDS011;37417;48.118;11.734;2022-08-21T12:38:26;1.35;;;1.17;;
51332;SDS011;37417;48.118;11.734;2022-08-21T12:41:16;0.98;;;0.93;;
51332;SDS011;37417;48.118;11.734;2022-08-21T12:44:08;1.30;;;1.20;;
51332;SDS011;37417;48.118;11.734;2022-08-21T12:46:56;1.52;;;1.10;;
51332;SDS011;37417;48.118;11.734;2022-08-21T12:49:51;1.70;;;1.15;;
51332;SDS011;37417;48.118;11.734;2022-08-21T12:52:45;1.40;;;1.30;;
51332;SDS011;37417;48.118;11.734;2022-08-21T12:55:34;1.50;;;1.35;;
51332;SDS011;37417;48.118;11.734;2022-08-21T12:58:23;1.33;;;1.23;;
51332;SDS011;37417;48.118;11.734;2022-08-21T13:04:04;1.65;;;1.40;;
51332;SDS011;37417;48.118;11.734;2022-08-21T13:06:53;1.27;;;1.15;;
51332;SDS011;37417;48.118;11.734;2022-08-21T13:09:43;1.35;;;1.15;;
51332;SDS011;37417;48.118;11.734;2022-08-21T13:12:29;1.75;;;1.10;;
51332;SDS011;37417;48.118;11.734;2022-08-21T13:15:21;3.22;;;1.15;;
51332;SDS011;37417;48.118;11.734;2022-08-21T13:18:07;1.17;;;0.98;;
51332;SDS011;37417;48.118;11.734;2022-08-21T13:21:02;2.90;;;1.17;;
51332;SDS011;37417;48.118;11.734;2022-08-21T13:23:48;4.38;;;1.25;;
51332;SDS011;37417;48.118;11.734;2022-08-21T13:26:34;1.63;;;1.30;;
51332;SDS011;37417;48.118;11.734;2022-08-21T13:29:20;1.27;;;1.10;;
51332;SDS011;37417;48.118;11.734;2022-08-21T13:32:06;4.55;;;1.17;;
51332;SDS011;37417;48.118;11.734;2022-08-21T13:34:52;1.23;;;1.13;;
51332;SDS011;37417;48.118;11.734;2022-08-21T13:37:38;1.08;;;1.02;;
51332;SDS011;37417;48.118;11.734;2022-08-21T13:40:26;1.25;;;1.13;;
51332;SDS011;37417;48.118;11.734;2022-08-21T13:43:13;1.27;;;1.13;;
51332;SDS011;37417;48.118;11.734;2022-08-21T13:45:59;2.25;;;1.20;;
51332;SDS011;37417;48.118;11.734;2022-08-21T13:48:45;1.30;;;1.08;;
51332;SDS011;37417;48.118;11.734;2022-08-21T13:51:31;2.20;;;1.50;;
51332;SDS011;37417;48.118;11.734;2022-08-21T13:54:23;2.00;;;1.20;;
51332;SDS011;37417;48.118;11.734;2022-08-21T13:57:16;1.25;;;1.15;;
51332;SDS011;37417;48.118;11.734;2022-08-21T14:00:10;3.30;;;1.38;;
51332;SDS011;37417;48.118;11.734;2022-08-21T14:03:04;1.48;;;1.30;;
51332;SDS011;37417;48.118;11.734;2022-08-21T14:05:50;1.50;;;1.15;;
51332;SDS011;37417;48.118;11.734;2022-08-21T14:08:36;1.92;;;1.00;;
51332;SDS011;37417;48.118;11.734;2022-08-21T14:11:22;1.98;;;1.00;;
51332;SDS011;37417;48.118;11.734;2022-08-21T14:14:22;1.48;;;1.00;;
51332;SDS011;37417;48.118;11.734;2022-08-21T14:17:09;1.88;;;1.17;;
51332;SDS011;37417;48.118;11.734;2022-08-21T14:19:55;3.20;;;1.30;;
51332;SDS011;37417;48.118;11.734;2022-08-21T14:22:42;1.70;;;1.13;;
51332;SDS011;37417;48.118;11.734;2022-08-21T14:25:30;1.20;;;0.90;;
51332;SDS011;37417;48.118;11.734;2022-08-21T14:28:23;1.70;;;1.10;;
51332;SDS011;37417;48.118;11.734;2022-08-21T14:31:11;1.83;;;1.33;;
51332;SDS011;37417;48.118;11.734;2022-08-21T14:33:58;1.52;;;1.00;;
51332;SDS011;37417;48.118;11.734;2022-08-21T14:36:43;2.17;;;1.08;;
51332;SDS011;37417;48.118;11.734;2022-08-21T14:39:29;3.45;;;1.10;;
51332;SDS011;37417;48.118;11.734;2022-08-21T14:42:15;1.35;;;0.95;;
51332;SDS011;37417;48.118;11.734;2022-08-21T14:45:08;3.08;;;1.15;;
51332;SDS011;37417;48.118;11.734;2022-08-21T14:47:57;1.60;;;1.15;;
51332;SDS011;37417;48.118;11.734;2022-08-21T14:50:42;1.17;;;1.00;;
51332;SDS011;37417;48.118;11.734;2022-08-21T14:53:28;2.20;;;1.30;;
51332;SDS011;37417;48.118;11.734;2022-08-21T14:56:14;1.13;;;0.85;;
51332;SDS011;37417;48.118;11.734;2022-08-21T14:59:02;1.67;;;1.02;;
51332;SDS011;37417;48.118;11.734;2022-08-21T15:01:48;0.80;;;0.80;;
51332;SDS011;37417;48.118;11.734;2022-08-21T15:04:34;1.30;;;1.10;;
51332;SDS011;37417;48.118;11.734;2022-08-21T15:07:19;2.70;;;1.10;;
51332;SDS011;37417;48.118;11.734;2022-08-21T15:10:05;2.90;;;1.33;;
51332;SDS011;37417;48.118;11.734;2022-08-21T15:12:51;2.20;;;1.35;;
51332;SDS011;37417;48.118;11.734;2022-08-21T15:15:41;1.38;;;1.10;;
51332;SDS011;37417;48.118;11.734;2022-08-21T15:21:12;2.10;;;1.15;;
51332;SDS011;37417;48.118;11.734;2022-08-21T15:23:58;2.90;;;1.25;;
51332;SDS011;37417;48.118;11.734;2022-08-21T15:26:44;1.52;;;0.80;;
51332;SDS011;37417;48.118;11.734;2022-08-21T15:29:30;0.88;;;0.82;;
51332;SDS011;37417;48.118;11.734;2022-08-21T15:35:04;1.27;;;1.05;;
51332;SDS011;37417;48.118;11.734;2022-08-21T15:37:50;0.93;;;0.80;;
51332;SDS011;37417;48.118;11.734;2022-08-21T15:40:36;2.63;;;0.82;;
51332;SDS011;37417;48.118;11.734;2022-08-21T15:46:07;2.15;;;0.90;;
51332;SDS011;37417;48.118;11.734;2022-08-21T15:48:55;1.42;;;0.98;;
51332;SDS011;37417;48.118;11.734;2022-08-21T15:51:40;1.15;;;0.93;;
51332;SDS011;37417;48.118;11.734;2022-08-21T15:54:26;1.42;;;1.00;;
51332;SDS011;37417;48.118;11.734;2022-08-21T15:57:13;1.20;;;0.85;;
51332;SDS011;37417;48.118;11.734;2022-08-21T16:00:00;1.75;;;1.08;;
51332;SDS011;37417;48.118;11.734;2022-08-21T16:02:55;1.90;;;1.17;;
51332;SDS011;37417;48.118;11.734;2022-08-21T16:05:42;2.08;;;1.17;;
51332;SDS011;37417;48.118;11.734;2022-08-21T16:08:28;2.63;;;1.27;;
51332;SDS011;37417;48.118;11.734;2022-08-21T16:11:13;1.55;;;0.93;;
51332;SDS011;37417;48.118;11.734;2022-08-21T16:13:59;2.13;;;1.83;;
51332;SDS011;37417;48.118;11.734;2022-08-21T16:16:45;2.38;;;1.50;;
51332;SDS011;37417;48.118;11.734;2022-08-21T16:19:30;4.32;;;1.17;;
51332;SDS011;37417;48.118;11.734;2022-08-21T16:22:16;4.30;;;1.60;;
51332;SDS011;37417;48.118;11.734;2022-08-21T16:25:02;1.27;;;1.10;;
51332;SDS011;37417;48.118;11.734;2022-08-21T16:27:49;2.22;;;1.10;;
51332;SDS011;37417;48.118;11.734;2022-08-21T16:30:36;3.67;;;1.27;;
51332;SDS011;37417;48.118;11.734;2022-08-21T16:36:07;1.17;;;1.10;;
51332;SDS011;37417;48.118;11.734;2022-08-21T16:38:54;2.17;;;1.40;;
51332;SDS011;37417;48.118;11.734;2022-08-21T16:41:40;2.65;;;1.73;;
51332;SDS011;37417;48.118;11.734;2022-08-21T16:44:25;4.55;;;1.33;;
51332;SDS011;37417;48.118;11.734;2022-08-21T16:47:11;1.83;;;1.33;;
51332;SDS011;37417;48.118;11.734;2022-08-21T16:49:56;2.08;;;1.45;;
51332;SDS011;37417;48.118;11.734;2022-08-21T16:52:42;2.38;;;1.33;;
51332;SDS011;37417;48.118;11.734;2022-08-21T16:55:28;2.42;;;1.13;;
51332;SDS011;37417;48.118;11.734;2022-08-21T16:58:15;2.47;;;1.52;;
51332;SDS011;37417;48.118;11.734;2022-08-21T17:01:05;3.53;;;1.60;;
51332;SDS011;37417;48.118;11.734;2022-08-21T17:03:51;1.20;;;1.02;;
51332;SDS011;37417;48.118;11.734;2022-08-21T17:06:37;4.00;;;1.63;;
51332;SDS011;37417;48.118;11.734;2022-08-21T17:09:23;1.48;;;1.35;;
51332;SDS011;37417;48.118;11.734;2022-08-21T17:12:08;2.92;;;1.40;;
51332;SDS011;37417;48.118;11.734;2022-08-21T17:14:55;4.43;;;1.40;;
51332;SDS011;37417;48.118;11.734;2022-08-21T17:17:41;2.03;;;1.02;;
51332;SDS011;37417;48.118;11.734;2022-08-21T17:20:26;2.20;;;1.50;;
51332;SDS011;37417;48.118;11.734;2022-08-21T17:23:12;3.38;;;1.63;;
51332;SDS011;37417;48.118;11.734;2022-08-21T17:25:58;2.78;;;1.40;;
51332;SDS011;37417;48.118;11.734;2022-08-21T17:28:44;2.78;;;1.40;;
51332;SDS011;37417;48.118;11.734;2022-08-21T17:31:30;9.35;;;1.88;;
51332;SDS011;37417;48.118;11.734;2022-08-21T17:34:16;2.45;;;1.58;;
51332;SDS011;37417;48.118;11.734;2022-08-21T17:37:01;2.95;;;1.77;;
51332;SDS011;37417;48.118;11.734;2022-08-21T17:39:47;2.63;;;1.60;;
51332;SDS011;37417;48.118;11.734;2022-08-21T17:42:32;2.50;;;1.65;;
51332;SDS011;37417;48.118;11.734;2022-08-21T17:45:18;1.30;;;1.17;;